sensor_id;sensor_type;location;lat;lon;timestamp;pressure;altitude;pressure_sealevel;temperature;humidity
50632;BME280;49583;45.590;-122.498;2022-11-20T00:01:06;102016.88;;;7.55;38.72
50632;BME280;49583;45.590;-122.498;2022-11-20T00:03:19;102020.61;;;7.49;38.94
50632;BME280;49583;45.590;-122.498;2022-11-20T00:05:34;102021.11;;;7.40;38.75
50632;BME280;49583;45.590;-122.498;2022-11-20T00:07:47;102017.60;;;7.31;38.84
50632;BME280;49583;45.590;-122.498;2022-11-20T00:09:59;102019.53;;;7.22;38.97
50632;BME280;49583;45.590;-122.498;2022-11-20T00:12:13;102021.11;;;7.17;39.14
50632;BME280;49583;45.590;-122.498;2022-11-20T00:14:26;102023.66;;;7.13;39.30
50632;BME280;49583;45.590;-122.498;2022-11-20T00:16:38;102021.62;;;7.03;39.22
50632;BME280;49583;45.590;-122.498;2022-11-20T00:18:52;102023.83;;;6.93;39.15
50632;BME280;49583;45.590;-122.498;2022-11-20T00:21:06;102022.88;;;6.86;39.44
50632;BME280;49583;45.590;-122.498;2022-11-20T00:23:19;102020.11;;;6.79;39.54
50632;BME280;49583;45.590;-122.498;2022-11-20T00:25:31;102024.09;;;6.73;39.56
50632;BME280;49583;45.590;-122.498;2022-11-20T00:27:45;102025.46;;;6.64;39.55
50632;BME280;49583;45.590;-122.498;2022-11-20T00:29:58;102027.58;;;6.58;39.72
50632;BME280;49583;45.590;-122.498;2022-11-20T00:32:11;102031.29;;;6.54;39.87
50632;BME280;49583;45.590;-122.498;2022-11-20T00:34:24;102032.77;;;6.50;39.49
50632;BME280;49583;45.590;-122.498;2022-11-20T00:36:36;102035.77;;;6.44;39.69
50632;BME280;49583;45.590;-122.498;2022-11-20T00:38:50;102036.79;;;6.38;39.91
50632;BME280;49583;45.590;-122.498;2022-11-20T00:41:04;102039.50;;;6.32;40.06
50632;BME280;49583;45.590;-122.498;2022-11-20T00:43:18;102039.93;;;6.28;40.28
50632;BME280;49583;45.590;-122.498;2022-11-20T00:45:30;102034.02;;;6.25;40.24
50632;BME280;49583;45.590;-122.498;2022-11-20T00:47:43;102032.00;;;6.18;40.31
50632;BME280;49583;45.590;-122.498;2022-11-20T00:49:56;102030.70;;;6.12;40.46
50632;BME280;49583;45.590;-122.498;2022-11-20T00:52:09;102030.07;;;6.07;40.57
50632;BME280;49583;45.590;-122.498;2022-11-20T00:54:21;102030.21;;;6.01;40.63
50632;BME280;49583;45.590;-122.498;2022-11-20T00:56:34;102033.02;;;5.98;40.60
50632;BME280;49583;45.590;-122.498;2022-11-20T00:58:47;102036.09;;;5.94;40.46
50632;BME280;49583;45.590;-122.498;2022-11-20T01:01:05;102034.23;;;5.90;40.75
50632;BME280;49583;45.590;-122.498;2022-11-20T01:03:17;102036.62;;;5.85;40.58
50632;BME280;49583;45.590;-122.498;2022-11-20T01:05:38;102037.08;;;5.79;40.85
50632;BME280;49583;45.590;-122.498;2022-11-20T01:07:51;102040.36;;;5.74;41.25
50632;BME280;49583;45.590;-122.498;2022-11-20T01:10:03;102041.26;;;5.68;41.35
50632;BME280;49583;45.590;-122.498;2022-11-20T01:12:16;102044.64;;;5.64;41.17
50632;BME280;49583;45.590;-122.498;2022-11-20T01:14:29;102047.86;;;5.58;41.06
50632;BME280;49583;45.590;-122.498;2022-11-20T01:16:42;102041.52;;;5.54;41.58
50632;BME280;49583;45.590;-122.498;2022-11-20T01:18:57;102047.03;;;5.51;41.18
50632;BME280;49583;45.590;-122.498;2022-11-20T01:21:11;102036.08;;;5.45;41.27
50632;BME280;49583;45.590;-122.498;2022-11-20T01:23:24;102040.83;;;5.39;41.97
50632;BME280;49583;45.590;-122.498;2022-11-20T01:25:37;102035.35;;;5.34;41.68
50632;BME280;49583;45.590;-122.498;2022-11-20T01:27:51;102035.79;;;5.30;41.79
50632;BME280;49583;45.590;-122.498;2022-11-20T01:30:04;102039.81;;;5.25;42.11
50632;BME280;49583;45.590;-122.498;2022-11-20T01:32:17;102034.73;;;5.18;42.46
50632;BME280;49583;45.590;-122.498;2022-11-20T01:34:30;102034.25;;;5.13;42.24
50632;BME280;49583;45.590;-122.498;2022-11-20T01:36:43;102034.07;;;5.10;42.25
50632;BME280;49583;45.590;-122.498;2022-11-20T01:38:58;102036.38;;;5.08;42.32
50632;BME280;49583;45.590;-122.498;2022-11-20T01:41:12;102045.73;;;5.06;42.40
50632;BME280;49583;45.590;-122.498;2022-11-20T01:43:45;102041.08;;;5.00;42.33
50632;BME280;49583;45.590;-122.498;2022-11-20T01:46:03;102046.83;;;4.95;42.77
50632;BME280;49583;45.590;-122.498;2022-11-20T01:48:16;102052.20;;;4.91;42.75
50632;BME280;49583;45.590;-122.498;2022-11-20T01:50:30;102052.70;;;4.88;42.64
50632;BME280;49583;45.590;-122.498;2022-11-20T01:52:47;102052.27;;;4.85;42.89
50632;BME280;49583;45.590;-122.498;2022-11-20T01:55:04;102054.19;;;4.81;43.12
50632;BME280;49583;45.590;-122.498;2022-11-20T01:57:20;102055.06;;;4.76;43.08
50632;BME280;49583;45.590;-122.498;2022-11-20T01:59:34;102051.27;;;4.71;43.33
50632;BME280;49583;45.590;-122.498;2022-11-20T02:01:48;102060.57;;;4.68;43.37
50632;BME280;49583;45.590;-122.498;2022-11-20T02:04:02;102064.54;;;4.66;43.29
50632;BME280;49583;45.590;-122.498;2022-11-20T02:06:17;102063.71;;;4.63;43.39
50632;BME280;49583;45.590;-122.498;2022-11-20T02:08:31;102067.46;;;4.63;42.98
50632;BME280;49583;45.590;-122.498;2022-11-20T02:10:45;102068.61;;;4.61;42.83
50632;BME280;49583;45.590;-122.498;2022-11-20T02:12:59;102066.83;;;4.60;43.11
50632;BME280;49583;45.590;-122.498;2022-11-20T02:15:28;102069.11;;;4.58;43.40
50632;BME280;49583;45.590;-122.498;2022-11-20T02:17:41;102073.81;;;4.56;43.52
50632;BME280;49583;45.590;-122.498;2022-11-20T02:19:54;102076.33;;;4.53;43.70
50632;BME280;49583;45.590;-122.498;2022-11-20T02:22:08;102073.30;;;4.51;43.47
50632;BME280;49583;45.590;-122.498;2022-11-20T02:24:25;102074.29;;;4.49;43.26
50632;BME280;49583;45.590;-122.498;2022-11-20T02:26:44;102078.73;;;4.51;42.99
50632;BME280;49583;45.590;-122.498;2022-11-20T02:28:59;102079.42;;;4.52;43.22
50632;BME280;49583;45.590;-122.498;2022-11-20T02:31:12;102073.46;;;4.52;43.40
50632;BME280;49583;45.590;-122.498;2022-11-20T02:33:26;102071.73;;;4.51;43.42
50632;BME280;49583;45.590;-122.498;2022-11-20T02:35:49;102072.29;;;4.49;43.44
50632;BME280;49583;45.590;-122.498;2022-11-20T02:38:03;102072.92;;;4.50;43.40
50632;BME280;49583;45.590;-122.498;2022-11-20T02:40:16;102079.34;;;4.50;43.26
50632;BME280;49583;45.590;-122.498;2022-11-20T02:42:29;102079.10;;;4.48;43.14
50632;BME280;49583;45.590;-122.498;2022-11-20T02:44:42;102078.34;;;4.47;43.25
50632;BME280;49583;45.590;-122.498;2022-11-20T02:46:56;102078.83;;;4.46;43.42
50632;BME280;49583;45.590;-122.498;2022-11-20T02:49:09;102081.23;;;4.45;43.43
50632;BME280;49583;45.590;-122.498;2022-11-20T02:51:22;102085.40;;;4.45;43.85
50632;BME280;49583;45.590;-122.498;2022-11-20T02:53:35;102091.98;;;4.44;43.61
50632;BME280;49583;45.590;-122.498;2022-11-20T02:55:48;102084.43;;;4.43;43.49
50632;BME280;49583;45.590;-122.498;2022-11-20T02:58:01;102087.20;;;4.42;44.04
50632;BME280;49583;45.590;-122.498;2022-11-20T03:00:16;102089.46;;;4.40;43.91
50632;BME280;49583;45.590;-122.498;2022-11-20T03:02:31;102090.56;;;4.38;43.91
50632;BME280;49583;45.590;-122.498;2022-11-20T03:04:44;102092.14;;;4.35;43.98
50632;BME280;49583;45.590;-122.498;2022-11-20T03:06:57;102084.27;;;4.31;44.01
50632;BME280;49583;45.590;-122.498;2022-11-20T03:09:10;102089.80;;;4.32;44.07
50632;BME280;49583;45.590;-122.498;2022-11-20T03:11:23;102099.62;;;4.29;44.24
50632;BME280;49583;45.590;-122.498;2022-11-20T03:13:36;102108.41;;;4.28;44.25
50632;BME280;49583;45.590;-122.498;2022-11-20T03:15:49;102105.30;;;4.25;44.09
50632;BME280;49583;45.590;-122.498;2022-11-20T03:18:02;102104.06;;;4.22;44.04
50632;BME280;49583;45.590;-122.498;2022-11-20T03:20:15;102100.23;;;4.21;44.09
50632;BME280;49583;45.590;-122.498;2022-11-20T03:22:29;102104.14;;;4.19;44.07
50632;BME280;49583;45.590;-122.498;2022-11-20T03:24:41;102102.85;;;4.18;43.91
50632;BME280;49583;45.590;-122.498;2022-11-20T03:26:54;102102.70;;;4.17;44.05
50632;BME280;49583;45.590;-122.498;2022-11-20T03:29:07;102099.29;;;4.15;44.13
50632;BME280;49583;45.590;-122.498;2022-11-20T03:31:21;102103.73;;;4.12;44.01
50632;BME280;49583;45.590;-122.498;2022-11-20T03:33:34;102110.58;;;4.12;43.87
50632;BME280;49583;45.590;-122.498;2022-11-20T03:35:47;102117.52;;;4.11;43.98
50632;BME280;49583;45.590;-122.498;2022-11-20T03:38:00;102117.95;;;4.12;43.95
50632;BME280;49583;45.590;-122.498;2022-11-20T03:40:13;102118.05;;;4.12;43.77
50632;BME280;49583;45.590;-122.498;2022-11-20T03:42:27;102115.73;;;4.13;43.84
50632;BME280;49583;45.590;-122.498;2022-11-20T03:44:58;102121.64;;;4.12;44.08
50632;BME280;49583;45.590;-122.498;2022-11-20T03:47:11;102117.20;;;4.11;44.01
50632;BME280;49583;45.590;-122.498;2022-11-20T03:49:23;102118.80;;;4.09;44.12
50632;BME280;49583;45.590;-122.498;2022-11-20T03:51:36;102119.57;;;4.07;44.25
50632;BME280;49583;45.590;-122.498;2022-11-20T03:53:50;102117.51;;;4.05;44.52
50632;BME280;49583;45.590;-122.498;2022-11-20T03:56:03;102121.07;;;4.01;44.56
50632;BME280;49583;45.590;-122.498;2022-11-20T03:58:16;102115.01;;;3.99;44.71
50632;BME280;49583;45.590;-122.498;2022-11-20T04:00:29;102118.16;;;3.96;44.62
50632;BME280;49583;45.590;-122.498;2022-11-20T04:02:42;102114.19;;;3.93;44.40
50632;BME280;49583;45.590;-122.498;2022-11-20T04:04:55;102116.30;;;3.90;44.41
50632;BME280;49583;45.590;-122.498;2022-11-20T04:07:08;102118.86;;;3.87;44.70
50632;BME280;49583;45.590;-122.498;2022-11-20T04:09:21;102124.09;;;3.85;44.77
50632;BME280;49583;45.590;-122.498;2022-11-20T04:11:35;102128.80;;;3.83;45.04
50632;BME280;49583;45.590;-122.498;2022-11-20T04:13:52;102129.78;;;3.82;45.01
50632;BME280;49583;45.590;-122.498;2022-11-20T04:16:05;102128.91;;;3.80;45.10
50632;BME280;49583;45.590;-122.498;2022-11-20T04:18:18;102130.41;;;3.78;45.13
50632;BME280;49583;45.590;-122.498;2022-11-20T04:20:31;102124.17;;;3.76;45.47
50632;BME280;49583;45.590;-122.498;2022-11-20T04:22:44;102124.29;;;3.75;45.43
50632;BME280;49583;45.590;-122.498;2022-11-20T04:24:57;102126.40;;;3.73;45.46
50632;BME280;49583;45.590;-122.498;2022-11-20T04:27:10;102128.64;;;3.71;45.51
50632;BME280;49583;45.590;-122.498;2022-11-20T04:29:23;102133.15;;;3.69;45.56
50632;BME280;49583;45.590;-122.498;2022-11-20T04:31:36;102133.92;;;3.67;45.54
50632;BME280;49583;45.590;-122.498;2022-11-20T04:33:49;102137.34;;;3.64;45.50
50632;BME280;49583;45.590;-122.498;2022-11-20T04:36:05;102133.89;;;3.62;45.73
50632;BME280;49583;45.590;-122.498;2022-11-20T04:38:18;102141.63;;;3.60;45.81
50632;BME280;49583;45.590;-122.498;2022-11-20T04:40:32;102144.88;;;3.58;45.99
50632;BME280;49583;45.590;-122.498;2022-11-20T04:42:45;102148.80;;;3.55;45.97
50632;BME280;49583;45.590;-122.498;2022-11-20T04:44:58;102152.27;;;3.53;46.07
50632;BME280;49583;45.590;-122.498;2022-11-20T04:47:11;102158.45;;;3.52;46.06
50632;BME280;49583;45.590;-122.498;2022-11-20T04:49:24;102157.69;;;3.50;46.09
50632;BME280;49583;45.590;-122.498;2022-11-20T04:51:37;102160.67;;;3.48;46.17
50632;BME280;49583;45.590;-122.498;2022-11-20T04:53:49;102165.26;;;3.47;46.25
50632;BME280;49583;45.590;-122.498;2022-11-20T04:56:08;102162.75;;;3.43;46.45
50632;BME280;49583;45.590;-122.498;2022-11-20T04:58:22;102161.56;;;3.42;46.44
50632;BME280;49583;45.590;-122.498;2022-11-20T05:00:34;102160.05;;;3.41;46.51
50632;BME280;49583;45.590;-122.498;2022-11-20T05:02:47;102164.29;;;3.38;46.45
50632;BME280;49583;45.590;-122.498;2022-11-20T05:05:00;102159.09;;;3.37;46.53
50632;BME280;49583;45.590;-122.498;2022-11-20T05:07:13;102158.92;;;3.34;46.77
50632;BME280;49583;45.590;-122.498;2022-11-20T05:09:26;102161.66;;;3.32;46.69
50632;BME280;49583;45.590;-122.498;2022-11-20T05:11:39;102158.89;;;3.29;46.68
50632;BME280;49583;45.590;-122.498;2022-11-20T05:13:57;102163.48;;;3.28;46.71
50632;BME280;49583;45.590;-122.498;2022-11-20T05:16:12;102163.65;;;3.26;46.82
50632;BME280;49583;45.590;-122.498;2022-11-20T05:18:25;102162.92;;;3.23;47.00
50632;BME280;49583;45.590;-122.498;2022-11-20T05:20:38;102163.45;;;3.20;47.02
50632;BME280;49583;45.590;-122.498;2022-11-20T05:22:51;102159.66;;;3.18;46.86
50632;BME280;49583;45.590;-122.498;2022-11-20T05:25:04;102163.47;;;3.17;46.89
50632;BME280;49583;45.590;-122.498;2022-11-20T05:27:17;102168.78;;;3.17;46.87
50632;BME280;49583;45.590;-122.498;2022-11-20T05:29:30;102171.21;;;3.15;46.77
50632;BME280;49583;45.590;-122.498;2022-11-20T05:31:43;102175.96;;;3.13;46.92
50632;BME280;49583;45.590;-122.498;2022-11-20T05:33:57;102179.05;;;3.11;46.92
50632;BME280;49583;45.590;-122.498;2022-11-20T05:36:11;102175.05;;;3.09;47.02
50632;BME280;49583;45.590;-122.498;2022-11-20T05:38:25;102179.29;;;3.09;47.02
50632;BME280;49583;45.590;-122.498;2022-11-20T05:40:38;102185.79;;;3.07;47.11
50632;BME280;49583;45.590;-122.498;2022-11-20T05:42:50;102185.79;;;3.06;47.15
50632;BME280;49583;45.590;-122.498;2022-11-20T05:45:04;102188.21;;;3.05;47.31
50632;BME280;49583;45.590;-122.498;2022-11-20T05:47:17;102190.70;;;3.04;47.53
50632;BME280;49583;45.590;-122.498;2022-11-20T05:49:30;102185.84;;;3.02;47.57
50632;BME280;49583;45.590;-122.498;2022-11-20T05:51:43;102192.07;;;2.99;47.61
50632;BME280;49583;45.590;-122.498;2022-11-20T05:53:57;102193.36;;;2.97;47.58
50632;BME280;49583;45.590;-122.498;2022-11-20T05:56:12;102190.11;;;2.94;47.55
50632;BME280;49583;45.590;-122.498;2022-11-20T05:58:25;102196.45;;;2.91;47.54
50632;BME280;49583;45.590;-122.498;2022-11-20T06:00:38;102189.63;;;2.86;47.63
50632;BME280;49583;45.590;-122.498;2022-11-20T06:02:51;102189.80;;;2.84;47.48
50632;BME280;49583;45.590;-122.498;2022-11-20T06:05:05;102184.91;;;2.81;47.52
50632;BME280;49583;45.590;-122.498;2022-11-20T06:07:18;102180.42;;;2.78;47.53
50632;BME280;49583;45.590;-122.498;2022-11-20T06:09:31;102178.15;;;2.75;47.53
50632;BME280;49583;45.590;-122.498;2022-11-20T06:11:45;102180.96;;;2.72;47.48
50632;BME280;49583;45.590;-122.498;2022-11-20T06:13:58;102182.21;;;2.70;47.66
50632;BME280;49583;45.590;-122.498;2022-11-20T06:16:12;102184.27;;;2.69;47.73
50632;BME280;49583;45.590;-122.498;2022-11-20T06:18:25;102187.41;;;2.67;47.74
50632;BME280;49583;45.590;-122.498;2022-11-20T06:20:38;102191.23;;;2.65;47.86
50632;BME280;49583;45.590;-122.498;2022-11-20T06:22:51;102189.77;;;2.63;47.70
50632;BME280;49583;45.590;-122.498;2022-11-20T06:25:03;102186.70;;;2.62;47.80
50632;BME280;49583;45.590;-122.498;2022-11-20T06:27:16;102189.95;;;2.61;47.86
50632;BME280;49583;45.590;-122.498;2022-11-20T06:29:29;102194.15;;;2.60;47.84
50632;BME280;49583;45.590;-122.498;2022-11-20T06:31:42;102192.27;;;2.58;47.99
50632;BME280;49583;45.590;-122.498;2022-11-20T06:33:56;102191.39;;;2.56;48.01
50632;BME280;49583;45.590;-122.498;2022-11-20T06:36:09;102186.31;;;2.54;48.00
50632;BME280;49583;45.590;-122.498;2022-11-20T06:38:23;102187.82;;;2.52;47.95
50632;BME280;49583;45.590;-122.498;2022-11-20T06:40:35;102187.00;;;2.50;48.02
50632;BME280;49583;45.590;-122.498;2022-11-20T06:42:48;102185.48;;;2.49;47.83
50632;BME280;49583;45.590;-122.498;2022-11-20T06:45:01;102187.86;;;2.48;47.93
50632;BME280;49583;45.590;-122.498;2022-11-20T06:47:14;102185.44;;;2.45;47.77
50632;BME280;49583;45.590;-122.498;2022-11-20T06:49:28;102186.78;;;2.45;47.83
50632;BME280;49583;45.590;-122.498;2022-11-20T06:51:41;102186.67;;;2.44;47.87
50632;BME280;49583;45.590;-122.498;2022-11-20T06:53:53;102187.41;;;2.43;47.77
50632;BME280;49583;45.590;-122.498;2022-11-20T06:56:07;102192.60;;;2.42;47.84
50632;BME280;49583;45.590;-122.498;2022-11-20T06:58:20;102189.69;;;2.41;47.92
50632;BME280;49583;45.590;-122.498;2022-11-20T07:00:33;102187.64;;;2.38;48.05
50632;BME280;49583;45.590;-122.498;2022-11-20T07:02:45;102188.70;;;2.36;48.13
50632;BME280;49583;45.590;-122.498;2022-11-20T07:04:58;102194.77;;;2.34;48.03
50632;BME280;49583;45.590;-122.498;2022-11-20T07:07:11;102190.53;;;2.32;48.18
50632;BME280;49583;45.590;-122.498;2022-11-20T07:09:24;102195.90;;;2.30;48.21
50632;BME280;49583;45.590;-122.498;2022-11-20T07:11:36;102194.86;;;2.29;48.25
50632;BME280;49583;45.590;-122.498;2022-11-20T07:13:49;102200.36;;;2.28;48.21
50632;BME280;49583;45.590;-122.498;2022-11-20T07:16:05;102197.27;;;2.26;48.43
50632;BME280;49583;45.590;-122.498;2022-11-20T07:18:18;102202.41;;;2.23;48.30
50632;BME280;49583;45.590;-122.498;2022-11-20T07:20:30;102200.52;;;2.21;48.36
50632;BME280;49583;45.590;-122.498;2022-11-20T07:22:44;102204.82;;;2.18;48.42
50632;BME280;49583;45.590;-122.498;2022-11-20T07:24:57;102201.31;;;2.15;48.42
50632;BME280;49583;45.590;-122.498;2022-11-20T07:27:10;102200.91;;;2.13;48.41
50632;BME280;49583;45.590;-122.498;2022-11-20T07:29:23;102197.34;;;2.12;48.49
50632;BME280;49583;45.590;-122.498;2022-11-20T07:31:36;102194.41;;;2.10;48.38
50632;BME280;49583;45.590;-122.498;2022-11-20T07:33:48;102193.61;;;2.08;48.54
50632;BME280;49583;45.590;-122.498;2022-11-20T07:36:03;102197.60;;;2.06;48.63
50632;BME280;49583;45.590;-122.498;2022-11-20T07:38:16;102196.82;;;2.03;48.65
50632;BME280;49583;45.590;-122.498;2022-11-20T07:40:29;102192.77;;;2.01;48.65
50632;BME280;49583;45.590;-122.498;2022-11-20T07:42:49;102193.86;;;1.99;48.59
50632;BME280;49583;45.590;-122.498;2022-11-20T07:45:02;102190.60;;;1.98;48.67
50632;BME280;49583;45.590;-122.498;2022-11-20T07:47:14;102190.04;;;1.95;48.96
50632;BME280;49583;45.590;-122.498;2022-11-20T07:49:27;102189.77;;;1.93;48.74
50632;BME280;49583;45.590;-122.498;2022-11-20T07:51:41;102193.45;;;1.92;48.82
50632;BME280;49583;45.590;-122.498;2022-11-20T07:53:58;102192.95;;;1.91;48.74
50632;BME280;49583;45.590;-122.498;2022-11-20T07:56:11;102194.95;;;1.90;48.92
50632;BME280;49583;45.590;-122.498;2022-11-20T07:58:24;102193.70;;;1.90;48.87
50632;BME280;49583;45.590;-122.498;2022-11-20T08:00:37;102200.73;;;1.91;48.83
50632;BME280;49583;45.590;-122.498;2022-11-20T08:02:50;102205.17;;;1.92;48.83
50632;BME280;49583;45.590;-122.498;2022-11-20T08:05:03;102207.71;;;1.92;48.78
50632;BME280;49583;45.590;-122.498;2022-11-20T08:07:16;102210.96;;;1.93;48.81
50632;BME280;49583;45.590;-122.498;2022-11-20T08:09:29;102209.06;;;1.92;48.88
50632;BME280;49583;45.590;-122.498;2022-11-20T08:11:42;102206.64;;;1.93;48.86
50632;BME280;49583;45.590;-122.498;2022-11-20T08:14:12;102204.14;;;1.94;48.72
50632;BME280;49583;45.590;-122.498;2022-11-20T08:16:25;102208.95;;;1.94;48.60
50632;BME280;49583;45.590;-122.498;2022-11-20T08:18:38;102206.25;;;1.95;48.82
50632;BME280;49583;45.590;-122.498;2022-11-20T08:20:51;102211.55;;;1.96;48.74
50632;BME280;49583;45.590;-122.498;2022-11-20T08:23:05;102207.44;;;1.94;48.65
50632;BME280;49583;45.590;-122.498;2022-11-20T08:25:18;102206.86;;;1.93;48.82
50632;BME280;49583;45.590;-122.498;2022-11-20T08:27:31;102213.05;;;1.92;48.72
50632;BME280;49583;45.590;-122.498;2022-11-20T08:29:47;102212.98;;;1.90;48.81
50632;BME280;49583;45.590;-122.498;2022-11-20T08:32:00;102211.04;;;1.89;48.69
50632;BME280;49583;45.590;-122.498;2022-11-20T08:34:19;102209.46;;;1.88;48.68
50632;BME280;49583;45.590;-122.498;2022-11-20T08:36:35;102209.50;;;1.87;48.71
50632;BME280;49583;45.590;-122.498;2022-11-20T08:38:51;102204.77;;;1.85;48.80
50632;BME280;49583;45.590;-122.498;2022-11-20T08:41:07;102198.91;;;1.83;48.71
50632;BME280;49583;45.590;-122.498;2022-11-20T08:43:39;102199.02;;;1.82;48.95
50632;BME280;49583;45.590;-122.498;2022-11-20T08:45:51;102203.96;;;1.79;49.05
50632;BME280;49583;45.590;-122.498;2022-11-20T08:48:05;102199.10;;;1.78;48.90
50632;BME280;49583;45.590;-122.498;2022-11-20T08:50:19;102198.90;;;1.77;49.16
50632;BME280;49583;45.590;-122.498;2022-11-20T08:52:32;102196.95;;;1.75;48.95
50632;BME280;49583;45.590;-122.498;2022-11-20T08:54:48;102200.77;;;1.76;48.98
50632;BME280;49583;45.590;-122.498;2022-11-20T08:57:01;102205.36;;;1.74;48.98
50632;BME280;49583;45.590;-122.498;2022-11-20T08:59:14;102204.52;;;1.72;49.16
50632;BME280;49583;45.590;-122.498;2022-11-20T09:01:47;102205.98;;;1.70;49.10
50632;BME280;49583;45.590;-122.498;2022-11-20T09:04:00;102204.73;;;1.69;49.03
50632;BME280;49583;45.590;-122.498;2022-11-20T09:06:14;102200.78;;;1.68;49.07
50632;BME280;49583;45.590;-122.498;2022-11-20T09:08:28;102199.05;;;1.67;49.18
50632;BME280;49583;45.590;-122.498;2022-11-20T09:10:41;102197.65;;;1.67;49.01
50632;BME280;49583;45.590;-122.498;2022-11-20T09:12:54;102189.27;;;1.66;48.98
50632;BME280;49583;45.590;-122.498;2022-11-20T09:15:08;102188.83;;;1.66;48.90
50632;BME280;49583;45.590;-122.498;2022-11-20T09:17:21;102190.17;;;1.63;49.19
50632;BME280;49583;45.590;-122.498;2022-11-20T09:19:33;102190.20;;;1.59;49.20
50632;BME280;49583;45.590;-122.498;2022-11-20T09:21:46;102191.91;;;1.56;48.93
50632;BME280;49583;45.590;-122.498;2022-11-20T09:24:04;102190.13;;;1.53;49.11
50632;BME280;49583;45.590;-122.498;2022-11-20T09:26:17;102193.35;;;1.50;49.04
50632;BME280;49583;45.590;-122.498;2022-11-20T09:28:30;102198.40;;;1.48;49.12
50632;BME280;49583;45.590;-122.498;2022-11-20T09:30:43;102195.42;;;1.45;49.36
50632;BME280;49583;45.590;-122.498;2022-11-20T09:32:55;102193.30;;;1.43;49.14
50632;BME280;49583;45.590;-122.498;2022-11-20T09:35:10;102195.88;;;1.41;49.20
50632;BME280;49583;45.590;-122.498;2022-11-20T09:37:23;102199.17;;;1.42;49.27
50632;BME280;49583;45.590;-122.498;2022-11-20T09:39:36;102198.91;;;1.43;49.28
50632;BME280;49583;45.590;-122.498;2022-11-20T09:42:04;102205.61;;;1.43;49.24
50632;BME280;49583;45.590;-122.498;2022-11-20T09:44:32;102211.08;;;1.43;49.13
50632;BME280;49583;45.590;-122.498;2022-11-20T09:46:51;102210.92;;;1.44;49.20
50632;BME280;49583;45.590;-122.498;2022-11-20T09:49:18;102208.16;;;1.43;49.14
50632;BME280;49583;45.590;-122.498;2022-11-20T09:51:46;102210.45;;;1.46;49.03
50632;BME280;49583;45.590;-122.498;2022-11-20T09:54:13;102207.91;;;1.46;49.04
50632;BME280;49583;45.590;-122.498;2022-11-20T09:56:28;102209.80;;;1.46;49.13
50632;BME280;49583;45.590;-122.498;2022-11-20T09:58:43;102210.13;;;1.47;48.93
50632;BME280;49583;45.590;-122.498;2022-11-20T10:01:00;102206.57;;;1.46;48.99
50632;BME280;49583;45.590;-122.498;2022-11-20T10:03:19;102210.55;;;1.45;48.98
50632;BME280;49583;45.590;-122.498;2022-11-20T10:05:39;102212.48;;;1.44;48.95
50632;BME280;49583;45.590;-122.498;2022-11-20T10:07:55;102211.55;;;1.43;48.97
50632;BME280;49583;45.590;-122.498;2022-11-20T10:10:19;102217.86;;;1.42;48.89
50632;BME280;49583;45.590;-122.498;2022-11-20T10:12:51;102213.85;;;1.40;48.92
50632;BME280;49583;45.590;-122.498;2022-11-20T10:15:22;102208.89;;;1.39;48.87
50632;BME280;49583;45.590;-122.498;2022-11-20T10:17:55;102210.17;;;1.38;48.88
50632;BME280;49583;45.590;-122.498;2022-11-20T10:22:53;102204.98;;;1.36;48.89
50632;BME280;49583;45.590;-122.498;2022-11-20T10:25:16;102202.90;;;1.34;49.12
50632;BME280;49583;45.590;-122.498;2022-11-20T10:27:59;102206.17;;;1.33;49.19
50632;BME280;49583;45.590;-122.498;2022-11-20T10:30:20;102200.84;;;1.32;49.18
50632;BME280;49583;45.590;-122.498;2022-11-20T10:32:38;102196.73;;;1.30;49.11
50632;BME280;49583;45.590;-122.498;2022-11-20T10:34:54;102195.54;;;1.29;49.20
50632;BME280;49583;45.590;-122.498;2022-11-20T10:37:13;102202.60;;;1.28;49.18
50632;BME280;49583;45.590;-122.498;2022-11-20T10:39:35;102196.65;;;1.27;49.40
50632;BME280;49583;45.590;-122.498;2022-11-20T10:41:53;102197.52;;;1.27;49.24
50632;BME280;49583;45.590;-122.498;2022-11-20T10:44:09;102196.70;;;1.26;49.35
50632;BME280;49583;45.590;-122.498;2022-11-20T10:46:25;102188.86;;;1.25;49.32
50632;BME280;49583;45.590;-122.498;2022-11-20T10:48:46;102196.69;;;1.24;49.44
50632;BME280;49583;45.590;-122.498;2022-11-20T10:51:15;102197.23;;;1.24;49.40
50632;BME280;49583;45.590;-122.498;2022-11-20T10:53:45;102197.66;;;1.24;49.24
50632;BME280;49583;45.590;-122.498;2022-11-20T10:56:05;102193.77;;;1.25;49.44
50632;BME280;49583;45.590;-122.498;2022-11-20T10:58:25;102196.04;;;1.25;49.38
50632;BME280;49583;45.590;-122.498;2022-11-20T11:00:42;102200.90;;;1.26;49.43
50632;BME280;49583;45.590;-122.498;2022-11-20T11:02:56;102199.40;;;1.26;49.43
50632;BME280;49583;45.590;-122.498;2022-11-20T11:05:25;102202.70;;;1.27;49.33
50632;BME280;49583;45.590;-122.498;2022-11-20T11:07:41;102205.25;;;1.28;49.28
50632;BME280;49583;45.590;-122.498;2022-11-20T11:09:56;102208.08;;;1.29;49.39
50632;BME280;49583;45.590;-122.498;2022-11-20T11:12:11;102205.77;;;1.30;49.39
50632;BME280;49583;45.590;-122.498;2022-11-20T11:14:24;102205.21;;;1.32;49.25
50632;BME280;49583;45.590;-122.498;2022-11-20T11:16:40;102211.14;;;1.32;49.31
50632;BME280;49583;45.590;-122.498;2022-11-20T11:19:11;102207.38;;;1.32;49.15
50632;BME280;49583;45.590;-122.498;2022-11-20T11:21:28;102212.73;;;1.30;49.17
50632;BME280;49583;45.590;-122.498;2022-11-20T11:23:42;102215.21;;;1.26;49.22
50632;BME280;49583;45.590;-122.498;2022-11-20T11:26:02;102217.98;;;1.21;49.34
50632;BME280;49583;45.590;-122.498;2022-11-20T11:28:24;102216.61;;;1.16;49.39
50632;BME280;49583;45.590;-122.498;2022-11-20T11:30:46;102211.66;;;1.12;49.48